Time;durP1;ratioP1;P1;durP2;ratioP2;P2;SDS_P1;SDS_P2;PMS_P1;PMS_P2;Temp;Humidity;BMP_temperature;BMP_pressure;BME280_temperature;BME280_humidity;BME280_pressure;Samples;Min_cycle;Max_cycle;Signal;HPM_P1;HPM_P2
2021/01/14 00:00:19;;;;;;;8.77;1.57;;;3.80;73.80;;;;;;6274623;22;19996;-82
2021/01/14 00:02:45;;;;;;;8.70;1.20;;;3.80;74.60;;;;;;6275347;22;20003;-81
2021/01/14 00:05:12;;;;;;;9.50;2.10;;;3.70;72.60;;;;;;6275658;22;20492;-81
2021/01/14 00:07:38;;;;;;;4.37;0.90;;;3.80;73.10;;;;;;6275443;22;20030;-81
2021/01/14 00:10:05;;;;;;;5.93;1.20;;;3.80;73.80;;;;;;6274733;22;20026;-81
2021/01/14 00:12:32;;;;;;;5.87;1.43;;;3.80;72.30;;;;;;6275540;22;20443;-81
2021/01/14 00:14:57;;;;;;;10.23;1.17;;;3.80;70.30;;;;;;6275801;22;20011;-81
2021/01/14 00:17:23;;;;;;;6.33;1.17;;;3.80;71.70;;;;;;6248927;22;20004;-81
2021/01/14 00:19:49;;;;;;;7.60;1.03;;;3.80;72.00;;;;;;6275375;22;20034;-81
2021/01/14 00:22:14;;;;;;;9.67;1.60;;;3.80;72.00;;;;;;6275697;22;19996;-81
2021/01/14 00:24:40;;;;;;;5.80;1.10;;;3.70;71.80;;;;;;6275991;22;20315;-82
2021/01/14 00:27:05;;;;;;;3.80;1.03;;;3.80;72.30;;;;;;6276291;22;20026;-81
2021/01/14 00:29:31;;;;;;;9.93;1.40;;;3.80;71.30;;;;;;6277001;22;20007;-82
2021/01/14 00:31:57;;;;;;;6.93;1.27;;;3.70;71.00;;;;;;6277770;22;20109;-81
2021/01/14 00:34:23;;;;;;;6.73;1.00;;;3.80;71.10;;;;;;6278044;22;20061;-81
2021/01/14 00:39:34;;;;;;;7.97;1.40;;;3.70;71.60;;;;;;6277300;22;20057;-81
2021/01/14 00:41:59;;;;;;;7.03;1.20;;;3.80;71.60;;;;;;6277761;22;20327;-81
2021/01/14 00:44:25;;;;;;;8.33;1.30;;;3.70;71.40;;;;;;6277545;22;20007;-81
2021/01/14 00:46:58;;;;;;;8.47;1.50;;;3.70;71.80;;;;;;6250511;22;20007;-81
2021/01/14 00:49:24;;;;;;;8.00;1.10;;;3.70;72.30;;;;;;6277001;22;20007;-82
2021/01/14 00:51:50;;;;;;;10.87;1.63;;;3.70;72.40;;;;;;6277415;22;20008;-81
2021/01/14 00:54:16;;;;;;;9.13;1.57;;;3.60;71.50;;;;;;6277603;22;20004;-81
2021/01/14 00:56:42;;;;;;;9.37;1.80;;;3.60;71.10;;;;;;6277749;22;20381;-81
2021/01/14 00:59:08;;;;;;;14.17;1.73;;;3.60;71.60;;;;;;6277372;22;20580;-81
2021/01/14 01:01:35;;;;;;;9.50;1.83;;;3.60;71.90;;;;;;6277510;22;20004;-81
2021/01/14 01:04:01;;;;;;;31.90;10.63;;;3.70;71.40;;;;;;6277679;22;20122;-81
2021/01/14 01:06:38;;;;;;;7.40;1.83;;;3.60;70.20;;;;;;6277462;22;20091;-81
2021/01/14 01:09:05;;;;;;;8.47;2.07;;;3.60;70.00;;;;;;6276955;22;20004;-81
2021/01/14 01:11:31;;;;;;;11.47;1.60;;;3.60;70.10;;;;;;6277429;22;20030;-81
2021/01/14 01:13:57;;;;;;;5.97;1.40;;;3.70;68.60;;;;;;6277838;22;20000;-81
2021/01/14 01:16:23;;;;;;;8.13;1.83;;;3.60;67.10;;;;;;6277163;22;20010;-81
2021/01/14 01:18:48;;;;;;;7.33;1.67;;;3.60;67.00;;;;;;6277320;22;20063;-80
2021/01/14 01:21:15;;;;;;;12.23;1.60;;;3.60;67.50;;;;;;6276914;22;20010;-81
2021/01/14 01:23:40;;;;;;;7.43;1.53;;;3.70;67.20;;;;;;6277517;22;19999;-81
2021/01/14 01:26:06;;;;;;;12.00;1.70;;;3.60;67.40;;;;;;6277873;22;20049;-81
2021/01/14 01:28:32;;;;;;;7.47;1.53;;;3.50;67.50;;;;;;6278231;22;20053;-82
2021/01/14 01:30:58;;;;;;;8.87;1.70;;;3.60;68.30;;;;;;6276807;22;20311;-81
2021/01/14 01:33:27;;;;;;;11.40;1.50;;;3.60;67.40;;;;;;6280811;22;20010;-82
2021/01/14 01:35:54;;;;;;;9.00;1.33;;;3.60;67.40;;;;;;6279290;22;20034;-82
2021/01/14 01:38:19;;;;;;;7.87;1.50;;;3.50;67.90;;;;;;6279686;22;20004;-81
2021/01/14 01:40:56;;;;;;;8.17;1.47;;;3.60;68.70;;;;;;6277629;22;20003;-81
2021/01/14 01:43:23;;;;;;;11.60;1.70;;;3.50;68.80;;;;;;6277303;22;20002;-81
2021/01/14 01:45:49;;;;;;;9.37;1.37;;;3.50;68.80;;;;;;6277135;22;20458;-81
2021/01/14 01:48:17;;;;;;;7.80;1.30;;;3.50;68.10;;;;;;6277445;22;20056;-82
2021/01/14 01:50:43;;;;;;;10.83;1.43;;;3.50;68.00;;;;;;6276505;22;20003;-81
2021/01/14 01:53:10;;;;;;;8.23;1.20;;;3.50;68.70;;;;;;6277178;22;20431;-80
2021/01/14 01:55:37;;;;;;;10.87;1.07;;;3.50;68.30;;;;;;6277357;22;20011;-81
2021/01/14 01:58:04;;;;;;;7.43;1.30;;;3.50;68.50;;;;;;6276913;22;20019;-82
2021/01/14 02:00:30;;;;;;;8.97;1.30;;;3.60;68.20;;;;;;6275955;22;20003;-81
2021/01/14 02:02:55;;;;;;;9.27;1.43;;;3.60;69.10;;;;;;6276705;22;20000;-81
2021/01/14 02:05:21;;;;;;;7.50;1.60;;;3.70;67.30;;;;;;6276496;22;20011;-81
2021/01/14 02:07:58;;;;;;;7.33;1.30;;;3.60;67.50;;;;;;6276852;22;20010;-81
2021/01/14 02:10:40;;;;;;;3.77;0.87;;;3.60;67.40;;;;;;6276218;22;19999;-81
2021/01/14 02:13:21;;;;;;;14.27;1.53;;;3.60;67.80;;;;;;6276709;22;20419;-80
2021/01/14 02:15:48;;;;;;;9.33;1.30;;;3.60;66.80;;;;;;6276393;22;20027;-81
2021/01/14 02:18:18;;;;;;;5.10;1.10;;;3.60;66.10;;;;;;6276524;22;20004;-81
2021/01/14 02:20:49;;;;;;;9.87;1.30;;;3.50;66.60;;;;;;6275894;22;20000;-81
2021/01/14 02:23:24;;;;;;;10.70;1.37;;;3.50;66.60;;;;;;6249278;22;20003;-81
2021/01/14 02:26:16;;;;;;;11.33;1.83;;;3.60;67.60;;;;;;6276495;22;19996;-81
2021/01/14 02:28:44;;;;;;;14.07;2.20;;;3.60;68.10;;;;;;6276417;22;20007;-81
2021/01/14 02:31:10;;;;;;;10.83;2.27;;;3.60;69.30;;;;;;6275438;22;20396;-81
2021/01/14 02:33:36;;;;;;;17.77;3.80;;;3.70;69.40;;;;;;6276272;22;20022;-80
2021/01/14 02:36:04;;;;;;;14.17;3.20;;;3.60;69.30;;;;;;6276342;22;20019;-81
2021/01/14 02:38:29;;;;;;;13.17;3.83;;;3.60;69.30;;;;;;6276308;22;19996;-81
2021/01/14 02:40:55;;;;;;;12.90;2.60;;;3.70;69.80;;;;;;6275959;22;20054;-81
2021/01/14 02:43:20;;;;;;;10.77;2.63;;;3.60;69.30;;;;;;6250096;22;20438;-81
2021/01/14 02:45:46;;;;;;;13.30;2.30;;;3.50;69.50;;;;;;6276774;22;20000;-81
2021/01/14 02:48:17;;;;;;;13.80;2.30;;;3.50;69.70;;;;;;6276755;22;19999;-81
2021/01/14 02:50:44;;;;;;;12.50;1.90;;;3.50;70.00;;;;;;6275750;22;20006;-81
2021/01/14 02:53:14;;;;;;;9.13;1.63;;;3.40;70.40;;;;;;6276857;22;20000;-81
2021/01/14 02:55:40;;;;;;;7.03;1.20;;;3.50;70.30;;;;;;6276813;22;20038;-81
2021/01/14 02:58:06;;;;;;;9.93;1.33;;;3.40;70.10;;;;;;6277863;22;20376;-82
2021/01/14 03:00:33;;;;;;;7.07;1.03;;;3.40;69.80;;;;;;6277169;22;19996;-82
2021/01/14 03:02:59;;;;;;;6.90;1.43;;;3.40;70.50;;;;;;6277625;22;19996;-81
2021/01/14 03:05:24;;;;;;;6.43;1.23;;;3.40;70.80;;;;;;6277391;22;20004;-81
2021/01/14 03:07:50;;;;;;;9.97;1.83;;;3.50;70.70;;;;;;6277549;22;20435;-81
2021/01/14 03:10:16;;;;;;;5.33;1.37;;;3.50;71.20;;;;;;6277022;22;20026;-81
2021/01/14 03:12:41;;;;;;;9.50;1.03;;;3.50;71.30;;;;;;6277571;22;20426;-81
2021/01/14 03:15:07;;;;;;;7.60;1.33;;;3.50;71.30;;;;;;6277182;22;19999;-81
2021/01/14 03:17:37;;;;;;;8.30;1.10;;;3.40;70.70;;;;;;6277088;22;19995;-81
2021/01/14 03:20:06;;;;;;;7.07;1.27;;;3.40;71.00;;;;;;6276581;22;20000;-81
2021/01/14 03:22:36;;;;;;;;;;;3.40;70.90;;;;;;6277170;22;20004;-81
2021/01/14 03:25:03;;;;;;;5.87;1.17;;;3.30;71.50;;;;;;6276412;22;20306;-81
2021/01/14 03:27:28;;;;;;;6.00;1.13;;;3.40;71.80;;;;;;6249676;22;20003;-82
2021/01/14 03:29:54;;;;;;;10.83;1.17;;;3.40;71.60;;;;;;6276398;22;20006;-81
2021/01/14 03:32:19;;;;;;;7.53;1.20;;;3.30;71.50;;;;;;6276217;22;20011;-81
2021/01/14 03:34:45;;;;;;;6.10;1.10;;;3.40;71.70;;;;;;6276096;22;20304;-81
2021/01/14 03:37:10;;;;;;;7.63;1.50;;;3.30;71.50;;;;;;6275773;22;20067;-81
2021/01/14 03:39:36;;;;;;;7.50;1.40;;;3.20;72.30;;;;;;6274412;22;20385;-81
2021/01/14 03:42:02;;;;;;;7.80;1.27;;;3.30;72.00;;;;;;6275911;22;20001;-82
2021/01/14 03:44:29;;;;;;;10.97;1.67;;;3.30;71.70;;;;;;6276502;22;20010;-81
2021/01/14 03:46:54;;;;;;;7.27;1.30;;;3.20;72.10;;;;;;6276399;22;20003;-82
2021/01/14 03:49:20;;;;;;;9.97;1.23;;;3.30;72.70;;;;;;6275388;22;20090;-81
2021/01/14 03:51:46;;;;;;;5.87;1.30;;;3.30;72.30;;;;;;6275966;22;19999;-81
2021/01/14 03:54:12;;;;;;;8.30;1.20;;;3.30;72.00;;;;;;6276062;22;20362;-81
2021/01/14 03:56:39;;;;;;;8.43;1.53;;;3.30;72.50;;;;;;6276042;22;20004;-81
2021/01/14 03:59:05;;;;;;;7.07;1.37;;;3.30;72.20;;;;;;6275238;22;20066;-82
2021/01/14 04:01:32;;;;;;;7.00;1.30;;;3.30;72.20;;;;;;6275866;22;20003;-81
2021/01/14 04:03:58;;;;;;;10.93;1.47;;;3.20;73.10;;;;;;6278009;22;20042;-81
2021/01/14 04:06:34;;;;;;;8.30;1.00;;;3.30;73.00;;;;;;6277857;22;20004;-82
2021/01/14 04:08:59;;;;;;;5.73;1.33;;;3.20;72.80;;;;;;6250188;22;20008;-81
2021/01/14 04:11:25;;;;;;;7.90;1.10;;;3.30;73.90;;;;;;6277642;22;20075;-81
2021/01/14 04:13:51;;;;;;;10.13;1.50;;;3.30;73.60;;;;;;6277949;22;20010;-81
2021/01/14 04:16:17;;;;;;;6.23;1.10;;;3.20;73.50;;;;;;6277629;22;20092;-81
2021/01/14 04:18:42;;;;;;;6.03;1.17;;;3.30;73.70;;;;;;6277817;22;19996;-81
2021/01/14 04:21:08;;;;;;;7.43;1.03;;;3.30;73.90;;;;;;6276625;22;20007;-81
2021/01/14 04:23:33;;;;;;;7.10;1.30;;;3.40;73.50;;;;;;6277796;22;20010;-81
2021/01/14 04:25:59;;;;;;;9.90;1.63;;;3.40;73.50;;;;;;6277874;22;20475;-81
2021/01/14 04:28:25;;;;;;;4.00;1.10;;;3.40;73.20;;;;;;6277734;22;20425;-81
2021/01/14 04:30:50;;;;;;;8.57;1.40;;;3.50;73.30;;;;;;6249356;22;20011;-81
2021/01/14 04:33:16;;;;;;;10.10;1.47;;;3.40;72.80;;;;;;6277480;22;20339;-82
2021/01/14 04:35:53;;;;;;;8.47;1.17;;;3.40;73.10;;;;;;6250274;22;20054;-81
2021/01/14 04:38:20;;;;;;;5.10;1.30;;;3.40;73.30;;;;;;6277509;22;20075;-80
2021/01/14 04:40:53;;;;;;;8.17;1.23;;;3.40;73.90;;;;;;6249449;22;20002;-81
2021/01/14 04:43:18;;;;;;;7.87;1.23;;;3.40;74.10;;;;;;6278019;22;20330;-80
2021/01/14 04:45:47;;;;;;;7.53;1.20;;;3.40;74.10;;;;;;6277646;22;20008;-81
2021/01/14 04:48:12;;;;;;;7.17;1.20;;;3.30;74.10;;;;;;6250319;22;20014;-81
2021/01/14 04:50:39;;;;;;;6.63;1.20;;;3.30;74.20;;;;;;6276544;22;20502;-81
2021/01/14 04:53:06;;;;;;;9.63;1.70;;;3.30;74.40;;;;;;6277001;22;20004;-81
2021/01/14 04:55:42;;;;;;;12.87;1.87;;;3.30;74.20;;;;;;6276913;22;20004;-80
2021/01/14 04:58:18;;;;;;;8.23;1.40;;;3.30;74.60;;;;;;6277817;22;20028;-81
2021/01/14 05:00:47;;;;;;;7.23;1.33;;;3.30;74.60;;;;;;6276553;22;20072;-81
2021/01/14 05:03:19;;;;;;;8.48;1.35;;;3.30;74.00;;;;;;6277300;22;20323;-81
2021/01/14 05:05:47;;;;;;;8.23;1.47;;;3.30;74.10;;;;;;6277524;22;20125;-81
2021/01/14 05:08:15;;;;;;;7.73;1.23;;;3.30;74.50;;;;;;6250100;22;20010;-82
2021/01/14 05:10:43;;;;;;;10.40;1.30;;;3.30;74.50;;;;;;6276324;22;20007;-81
2021/01/14 05:13:09;;;;;;;11.33;1.40;;;3.20;75.00;;;;;;6276860;22;19999;-81
2021/01/14 05:15:35;;;;;;;7.23;1.10;;;3.20;74.90;;;;;;6277205;22;20004;-81
2021/01/14 05:18:01;;;;;;;6.77;1.30;;;3.30;74.50;;;;;;6277108;22;20023;-81
2021/01/14 05:20:27;;;;;;;11.83;1.80;;;3.20;75.00;;;;;;6249387;22;20339;-81
2021/01/14 05:22:59;;;;;;;9.70;1.60;;;3.20;74.80;;;;;;6276811;22;20003;-81
2021/01/14 05:25:25;;;;;;;6.87;1.37;;;3.20;75.30;;;;;;6277433;22;20029;-81
2021/01/14 05:27:50;;;;;;;9.20;1.47;;;3.20;75.10;;;;;;6277067;22;20003;-81
2021/01/14 05:30:17;;;;;;;8.60;1.40;;;3.20;75.30;;;;;;6276163;22;20000;-81
2021/01/14 05:32:45;;;;;;;8.10;1.33;;;3.30;74.70;;;;;;6249679;22;20446;-80
2021/01/14 05:35:13;;;;;;;11.50;3.50;;;3.30;75.40;;;;;;6276200;22;20038;-80
2021/01/14 05:37:44;;;;;;;8.67;1.50;;;3.30;74.90;;;;;;6276464;22;20002;-80
2021/01/14 05:40:22;;;;;;;7.63;1.50;;;3.30;74.90;;;;;;6275865;22;19995;-80
2021/01/14 05:43:04;;;;;;;10.43;1.63;;;3.30;75.00;;;;;;6276383;22;20003;-80
2021/01/14 05:45:31;;;;;;;9.03;1.53;;;3.30;75.10;;;;;;6249124;22;20423;-80
2021/01/14 05:48:11;;;;;;;12.80;2.17;;;3.30;75.40;;;;;;6276163;22;20004;-80
2021/01/14 05:50:42;;;;;;;9.97;1.50;;;3.30;74.90;;;;;;6275764;22;20008;-80
2021/01/14 05:53:16;;;;;;;6.97;1.53;;;3.10;75.70;;;;;;6276256;22;20038;-80
2021/01/14 05:55:44;;;;;;;7.00;1.90;;;3.20;75.70;;;;;;6249218;22;20003;-80
2021/01/14 05:58:17;;;;;;;10.13;1.63;;;3.30;75.20;;;;;;6276142;22;20373;-80
2021/01/14 06:00:44;;;;;;;7.33;1.43;;;3.30;75.20;;;;;;6275589;22;20003;-80
2021/01/14 06:03:30;;;;;;;13.80;1.60;;;3.30;74.90;;;;;;6249368;22;19996;-80
2021/01/14 06:05:58;;;;;;;5.70;1.30;;;3.30;76.10;;;;;;6277374;22;20008;-81
2021/01/14 06:08:28;;;;;;;5.20;1.20;;;3.30;75.50;;;;;;6277176;22;20420;-81
2021/01/14 06:10:54;;;;;;;9.17;1.80;;;3.20;75.20;;;;;;6277223;22;20067;-80
2021/01/14 06:13:41;;;;;;;10.17;1.80;;;3.20;76.30;;;;;;6276191;22;20033;-80
2021/01/14 06:16:07;;;;;;;6.47;1.37;;;3.30;75.50;;;;;;6276133;22;20081;-80
2021/01/14 06:18:33;;;;;;;10.23;1.40;;;3.20;74.90;;;;;;6276309;22;20070;-80
2021/01/14 06:20:58;;;;;;;7.73;1.60;;;3.20;75.20;;;;;;6275604;22;20027;-81
2021/01/14 06:23:24;;;;;;;6.43;1.57;;;3.10;76.50;;;;;;6277224;22;19996;-80
2021/01/14 06:25:52;;;;;;;8.57;1.50;;;3.10;76.40;;;;;;6277088;22;20346;-81
2021/01/14 06:28:20;;;;;;;4.87;1.17;;;3.10;76.40;;;;;;6277316;22;20427;-80
2021/01/14 06:31:02;;;;;;;12.10;1.73;;;3.10;76.20;;;;;;6276578;22;20046;-80
2021/01/14 06:33:32;;;;;;;7.17;1.50;;;3.20;76.10;;;;;;6276839;22;19999;-81
2021/01/14 06:36:09;;;;;;;14.40;1.40;;;3.20;76.20;;;;;;6277517;22;20047;-82
2021/01/14 06:39:01;;;;;;;11.13;1.97;;;3.20;75.50;;;;;;6276833;22;20052;-80
2021/01/14 06:41:36;;;;;;;7.07;1.20;;;3.20;76.00;;;;;;6275885;22;19999;-81
2021/01/14 06:44:06;;;;;;;11.93;1.63;;;3.10;76.30;;;;;;6276578;22;20050;-80
2021/01/14 06:46:34;;;;;;;10.87;1.90;;;3.10;75.80;;;;;;6276421;22;20004;-80
2021/01/14 06:49:08;;;;;;;9.13;2.33;;;3.10;76.20;;;;;;6275211;22;20007;-80
2021/01/14 06:51:56;;;;;;;9.20;1.70;;;3.20;76.30;;;;;;6275829;22;20000;-80
2021/01/14 06:54:25;;;;;;;10.23;1.97;;;3.20;76.40;;;;;;6277212;22;20079;-81
2021/01/14 06:57:22;;;;;;;8.93;1.70;;;3.20;76.50;;;;;;6248910;22;20118;-80
2021/01/14 06:59:52;;;;;;;8.27;2.10;;;3.20;76.40;;;;;;6273168;22;20129;-80
2021/01/14 07:02:34;;;;;;;10.00;2.13;;;3.10;76.90;;;;;;6275920;22;20089;-80
2021/01/14 07:05:19;;;;;;;8.87;1.80;;;3.10;77.00;;;;;;6275648;22;20000;-80
2021/01/14 07:07:47;;;;;;;7.97;1.83;;;3.20;77.20;;;;;;6249427;22;20011;-81
2021/01/14 07:10:15;;;;;;;5.10;1.53;;;3.20;77.20;;;;;;6275830;22;20377;-81
2021/01/14 07:12:45;;;;;;;8.90;1.80;;;3.20;76.80;;;;;;6276604;22;20014;-80
2021/01/14 07:15:13;;;;;;;11.43;1.83;;;3.20;76.90;;;;;;6277342;22;20008;-81
2021/01/14 07:17:42;;;;;;;10.30;1.63;;;3.10;76.90;;;;;;6249463;22;20451;-81
2021/01/14 07:20:13;;;;;;;7.37;1.50;;;3.10;77.10;;;;;;6276334;22;19992;-81
2021/01/14 07:22:50;;;;;;;8.63;1.70;;;3.10;77.00;;;;;;6276932;22;20051;-81
2021/01/14 07:25:17;;;;;;;11.50;1.63;;;3.10;77.20;;;;;;6277179;22;20000;-80
2021/01/14 07:27:44;;;;;;;12.03;1.90;;;3.10;76.80;;;;;;6277046;22;20415;-81
2021/01/14 07:30:11;;;;;;;11.03;1.63;;;3.10;77.00;;;;;;6276465;22;20328;-80
2021/01/14 07:32:57;;;;;;;8.57;1.53;;;3.10;77.60;;;;;;6277109;22;20012;-82
2021/01/14 07:35:47;;;;;;;11.67;2.20;;;3.10;77.80;;;;;;6277297;22;20380;-82
2021/01/14 07:38:14;;;;;;;8.03;2.00;;;3.10;77.60;;;;;;6277395;22;20000;-80
2021/01/14 07:40:41;;;;;;;7.73;1.50;;;3.10;78.10;;;;;;6276579;22;20079;-81
2021/01/14 07:43:10;;;;;;;12.80;1.70;;;3.10;77.80;;;;;;6249738;22;20004;-81
2021/01/14 07:45:36;;;;;;;11.13;2.10;;;3.10;77.50;;;;;;6277420;22;20073;-82
2021/01/14 07:48:19;;;;;;;9.20;1.83;;;3.10;77.50;;;;;;6277526;22;20035;-81
2021/01/14 07:50:48;;;;;;;6.13;1.70;;;3.10;77.60;;;;;;6276402;22;20083;-82
2021/01/14 07:53:15;;;;;;;8.57;1.83;;;3.10;78.10;;;;;;6277391;22;20054;-81
2021/01/14 07:55:40;;;;;;;8.70;1.90;;;3.00;77.60;;;;;;6277147;22;20012;-82
2021/01/14 07:58:11;;;;;;;11.07;2.23;;;3.10;78.10;;;;;;6277175;22;20065;-81
2021/01/14 08:00:39;;;;;;;11.20;1.53;;;3.10;77.60;;;;;;6276627;22;19995;-82
2021/01/14 08:03:10;;;;;;;10.20;1.63;;;3.00;77.70;;;;;;6276861;22;19996;-82
2021/01/14 08:05:58;;;;;;;7.60;1.80;;;3.10;77.40;;;;;;6276549;22;20004;-80
2021/01/14 08:08:37;;;;;;;11.50;1.90;;;3.10;77.80;;;;;;6275577;22;20004;-80
2021/01/14 08:11:19;;;;;;;6.53;1.50;;;3.10;77.40;;;;;;6274665;22;20027;-80
2021/01/14 08:14:10;;;;;;;9.53;1.77;;;3.10;77.90;;;;;;6275196;22;20000;-81
2021/01/14 08:16:43;;;;;;;8.03;1.80;;;3.10;77.60;;;;;;6275045;22;20004;-80
2021/01/14 08:19:34;;;;;;;7.47;2.13;;;3.10;77.60;;;;;;6274947;22;20003;-81
2021/01/14 08:22:02;;;;;;;10.53;1.97;;;3.10;77.70;;;;;;6274871;22;20020;-80
2021/01/14 08:24:48;;;;;;;11.37;1.90;;;3.10;77.80;;;;;;6275798;22;20004;-80
2021/01/14 08:27:27;;;;;;;12.63;1.97;;;3.10;77.60;;;;;;6222896;22;20007;-80
2021/01/14 08:30:12;;;;;;;7.18;1.83;;;3.00;77.40;;;;;;6274689;22;20007;-80
2021/01/14 08:33:05;;;;;;;8.53;1.90;;;3.00;77.80;;;;;;6275594;22;20011;-80
2021/01/14 08:35:32;;;;;;;11.40;2.17;;;3.10;78.40;;;;;;6248670;22;20091;-80
2021/01/14 08:38:07;;;;;;;9.00;1.80;;;3.10;77.90;;;;;;6247881;22;20334;-80
2021/01/14 08:40:37;;;;;;;9.03;2.17;;;3.10;77.50;;;;;;6274254;22;20003;-80
2021/01/14 08:43:11;;;;;;;8.53;2.23;;;3.00;77.70;;;;;;6274957;22;20000;-80
2021/01/14 08:45:44;;;;;;;9.13;1.90;;;3.10;77.70;;;;;;6275092;22;20071;-80
2021/01/14 08:48:12;;;;;;;14.03;2.80;;;3.10;77.60;;;;;;6248569;22;20074;-80
2021/01/14 08:50:49;;;;;;;10.63;2.33;;;3.10;77.90;;;;;;6276535;22;20004;-80
2021/01/14 08:53:17;;;;;;;9.17;2.03;;;3.10;77.40;;;;;;6249614;22;20346;-80
2021/01/14 08:55:43;;;;;;;8.53;2.23;;;3.10;77.50;;;;;;6276917;22;20448;-80
2021/01/14 08:58:09;;;;;;;9.03;2.70;;;3.10;77.40;;;;;;6276896;22;20292;-80
2021/01/14 09:00:39;;;;;;;9.13;2.20;;;3.10;77.40;;;;;;6276459;22;20418;-80
2021/01/14 09:03:05;;;;;;;;;;;3.10;77.80;;;;;;6277529;22;20368;-81
2021/01/14 09:05:31;;;;;;;12.73;2.60;;;3.10;77.90;;;;;;6277649;22;20251;-80
2021/01/14 09:08:12;;;;;;;8.93;2.00;;;3.10;77.50;;;;;;6277667;22;20290;-80
2021/01/14 09:10:51;;;;;;;8.57;2.53;;;3.00;76.90;;;;;;6276076;22;20342;-80
2021/01/14 09:13:24;;;;;;;6.38;1.90;;;3.10;77.10;;;;;;6277083;22;19999;-80
2021/01/14 09:15:53;;;;;;;9.63;2.20;;;3.20;76.60;;;;;;6276975;22;20053;-80
2021/01/14 09:18:32;;;;;;;6.82;2.08;;;3.20;77.10;;;;;;6276878;22;20018;-80
2021/01/14 09:20:58;;;;;;;10.57;2.33;;;3.20;76.50;;;;;;6276076;22;20000;-80
2021/01/14 09:23:32;;;;;;;7.70;2.37;;;3.20;75.70;;;;;;6277133;22;20025;-80
2021/01/14 09:25:59;;;;;;;7.83;2.20;;;3.20;74.80;;;;;;6277534;22;20097;-80
2021/01/14 09:28:27;;;;;;;9.60;2.43;;;3.30;74.90;;;;;;6277031;22;20011;-80
2021/01/14 09:30:57;;;;;;;9.60;2.50;;;3.20;74.90;;;;;;6248377;22;20007;-81
2021/01/14 09:33:25;;;;;;;8.20;2.53;;;3.30;74.70;;;;;;6276709;22;20078;-80
2021/01/14 09:36:19;;;;;;;7.77;2.53;;;3.30;74.30;;;;;;6277088;22;20008;-81
2021/01/14 09:38:52;;;;;;;12.53;3.90;;;3.30;74.10;;;;;;6278667;22;20334;-81
2021/01/14 09:41:25;;;;;;;9.70;4.43;;;3.30;73.40;;;;;;6278800;22;19999;-81
2021/01/14 09:43:54;;;;;;;10.93;4.33;;;3.20;73.20;;;;;;6278874;22;20378;-82
2021/01/14 09:46:22;;;;;;;7.77;4.27;;;3.30;73.40;;;;;;6278982;22;20008;-81
2021/01/14 09:48:49;;;;;;;14.77;5.30;;;3.20;73.40;;;;;;6278805;22;20014;-81
2021/01/14 09:51:15;;;;;;;9.93;4.50;;;3.30;73.70;;;;;;6250997;22;20007;-82
2021/01/14 09:53:46;;;;;;;14.67;5.20;;;3.30;73.50;;;;;;6278675;22;20427;-82
2021/01/14 09:56:34;;;;;;;10.30;4.43;;;3.30;73.50;;;;;;6279187;22;20016;-82
2021/01/14 09:59:29;;;;;;;11.00;4.13;;;3.30;73.70;;;;;;6278132;22;20000;-82
2021/01/14 10:02:10;;;;;;;9.17;3.87;;;3.30;73.40;;;;;;6237647;22;20022;-82
2021/01/14 10:04:41;;;;;;;9.97;3.80;;;3.30;73.70;;;;;;6278842;22;20004;-82
2021/01/14 10:07:14;;;;;;;12.90;3.90;;;3.30;72.70;;;;;;6278893;22;20007;-83
2021/01/14 10:09:40;;;;;;;8.37;3.60;;;3.20;73.60;;;;;;6278057;22;20421;-82
2021/01/14 10:12:06;;;;;;;9.27;4.23;;;3.30;73.70;;;;;;6280258;22;20004;-82
2021/01/14 10:14:32;;;;;;;9.90;4.30;;;3.30;73.20;;;;;;6279761;22;20000;-82
2021/01/14 10:17:11;;;;;;;14.13;5.67;;;3.30;72.80;;;;;;6279803;22;20004;-82
2021/01/14 10:19:47;;;;;;;11.77;4.57;;;3.20;72.20;;;;;;6250635;22;20000;-81
2021/01/14 10:22:14;;;;;;;13.43;4.27;;;3.20;72.40;;;;;;6251551;22;20000;-81
2021/01/14 10:24:40;;;;;;;10.10;5.00;;;3.20;72.90;;;;;;6278625;22;19992;-83
2021/01/14 10:27:12;;;;;;;13.00;5.53;;;3.30;72.70;;;;;;6251824;22;20010;-82
2021/01/14 10:29:39;;;;;;;9.37;4.73;;;3.20;72.90;;;;;;6278306;22;20027;-83
2021/01/14 10:32:08;;;;;;;12.70;5.20;;;3.30;73.20;;;;;;6250969;22;20019;-82
2021/01/14 10:34:39;;;;;;;;;;;3.30;73.40;;;;;;6250694;22;20007;-82
2021/01/14 10:37:05;;;;;;;16.20;5.10;;;3.30;72.70;;;;;;6277886;22;19903;-82
2021/01/14 10:39:40;;;;;;;10.30;4.97;;;3.20;72.80;;;;;;6249111;22;20011;-81
2021/01/14 10:42:32;;;;;;;11.60;5.47;;;3.20;72.30;;;;;;6277180;22;20048;-82
2021/01/14 10:45:07;;;;;;;12.73;5.47;;;3.20;72.80;;;;;;6277129;22;20026;-81
2021/01/14 10:47:34;;;;;;;11.77;5.63;;;3.20;73.00;;;;;;6249344;22;20007;-82
2021/01/14 10:50:17;;;;;;;12.20;6.03;;;3.20;73.10;;;;;;6276937;22;20466;-82
2021/01/14 10:52:59;;;;;;;12.83;6.00;;;3.30;72.30;;;;;;6276911;22;20058;-82
2021/01/14 10:55:28;;;;;;;13.37;5.90;;;3.20;71.80;;;;;;6276604;22;20427;-82
2021/01/14 10:57:55;;;;;;;10.70;5.97;;;3.20;72.20;;;;;;6277131;22;20377;-81
2021/01/14 11:00:21;;;;;;;11.13;5.90;;;3.20;72.00;;;;;;6277069;22;19999;-82
2021/01/14 11:02:47;;;;;;;13.03;6.53;;;3.20;72.30;;;;;;6277166;22;20071;-82
2021/01/14 11:05:14;;;;;;;11.03;5.50;;;3.20;71.80;;;;;;6277782;22;19999;-82
2021/01/14 11:07:41;;;;;;;7.77;5.03;;;3.30;71.40;;;;;;6277300;22;20004;-83
2021/01/14 11:10:10;;;;;;;11.53;4.97;;;3.20;71.10;;;;;;6275789;22;20007;-82
2021/01/14 11:12:54;;;;;;;;;;;3.20;71.20;;;;;;6277890;22;20010;-82
2021/01/14 11:15:20;;;;;;;10.57;4.50;;;3.20;71.40;;;;;;6276832;22;20241;-82
2021/01/14 11:17:46;;;;;;;9.60;3.93;;;3.30;71.60;;;;;;6276969;22;20023;-82
2021/01/14 11:20:12;;;;;;;8.90;4.23;;;3.30;71.20;;;;;;6277099;22;20066;-82
2021/01/14 11:22:38;;;;;;;7.67;4.20;;;3.30;72.10;;;;;;6276936;22;20003;-82
2021/01/14 11:25:04;;;;;;;9.30;4.43;;;3.30;71.80;;;;;;6277335;22;20003;-82
2021/01/14 11:27:29;;;;;;;9.57;4.60;;;3.30;71.60;;;;;;6276860;22;20067;-82
2021/01/14 11:29:55;;;;;;;8.63;4.20;;;3.30;72.10;;;;;;6276368;22;20367;-82
2021/01/14 11:32:21;;;;;;;13.27;4.70;;;3.30;72.20;;;;;;6276882;22;20090;-82
2021/01/14 11:34:46;;;;;;;8.57;3.80;;;3.40;71.90;;;;;;6277458;22;20030;-82
2021/01/14 11:37:12;;;;;;;10.17;3.70;;;3.40;72.00;;;;;;6277084;22;20372;-81
2021/01/14 11:39:37;;;;;;;10.83;3.53;;;3.30;70.80;;;;;;6276084;22;20000;-82
2021/01/14 11:42:03;;;;;;;7.40;3.60;;;3.40;71.60;;;;;;6276857;22;20003;-82
2021/01/14 11:44:30;;;;;;;8.00;3.60;;;3.30;71.50;;;;;;6277179;22;19999;-81
2021/01/14 11:46:56;;;;;;;8.93;3.97;;;3.40;71.40;;;;;;6276942;22;20419;-82
2021/01/14 11:49:21;;;;;;;7.90;3.50;;;3.30;71.70;;;;;;6276595;22;20030;-82
2021/01/14 11:51:51;;;;;;;7.10;3.17;;;3.30;71.60;;;;;;6277133;22;20011;-82
2021/01/14 11:54:16;;;;;;;8.88;4.05;;;3.40;71.50;;;;;;6277484;22;20067;-83
2021/01/14 11:56:42;;;;;;;10.73;3.70;;;3.40;71.80;;;;;;6276967;22;20085;-83
2021/01/14 11:59:08;;;;;;;8.37;3.83;;;3.40;71.40;;;;;;6276441;22;20431;-81
2021/01/14 12:01:33;;;;;;;11.10;3.83;;;3.30;72.00;;;;;;6277809;22;19996;-82
2021/01/14 12:03:59;;;;;;;7.03;3.40;;;3.30;71.30;;;;;;6251716;22;20000;-82
2021/01/14 12:06:24;;;;;;;7.87;3.37;;;3.40;71.60;;;;;;6249897;22;20014;-82
2021/01/14 12:08:50;;;;;;;9.80;3.40;;;3.30;72.00;;;;;;6276193;22;20003;-81
2021/01/14 12:11:19;;;;;;;9.20;3.07;;;3.30;72.10;;;;;;6275437;22;20003;-81
2021/01/14 12:13:45;;;;;;;5.57;3.20;;;3.30;72.30;;;;;;6275755;22;20007;-80
2021/01/14 12:16:11;;;;;;;5.77;3.13;;;3.30;71.80;;;;;;6275720;22;20368;-82
2021/01/14 12:18:36;;;;;;;7.63;3.20;;;3.20;72.30;;;;;;6249836;22;20003;-82
2021/01/14 12:21:02;;;;;;;7.50;3.70;;;3.20;72.40;;;;;;6276996;22;20003;-81
2021/01/14 12:23:27;;;;;;;9.23;3.60;;;3.20;72.50;;;;;;6277099;22;20004;-81
2021/01/14 12:25:53;;;;;;;7.80;2.80;;;3.30;72.10;;;;;;6251117;22;20338;-81
2021/01/14 12:28:18;;;;;;;6.73;3.03;;;3.30;72.00;;;;;;6278489;22;20445;-82
2021/01/14 12:30:44;;;;;;;7.33;3.20;;;3.30;71.80;;;;;;6277527;22;20051;-82
2021/01/14 12:33:10;;;;;;;8.63;3.07;;;3.30;72.10;;;;;;6278200;22;20004;-80
2021/01/14 12:35:36;;;;;;;8.97;3.10;;;3.30;72.50;;;;;;6278330;22;20027;-81
2021/01/14 12:38:02;;;;;;;10.03;3.03;;;3.30;71.90;;;;;;6278047;22;20049;-81
2021/01/14 12:40:29;;;;;;;7.07;3.63;;;3.30;72.00;;;;;;6249544;22;20003;-81
2021/01/14 12:42:55;;;;;;;9.27;3.00;;;3.30;72.50;;;;;;6277634;22;20003;-82
2021/01/14 12:45:20;;;;;;;8.57;3.07;;;3.40;72.10;;;;;;6278649;22;20008;-81
2021/01/14 12:47:46;;;;;;;13.50;3.50;;;3.40;71.60;;;;;;6278241;22;20334;-81
2021/01/14 12:50:12;;;;;;;9.13;2.80;;;3.50;71.60;;;;;;6277219;22;20026;-81
2021/01/14 12:52:37;;;;;;;9.13;2.80;;;3.40;71.70;;;;;;6278459;22;20038;-81
2021/01/14 12:55:03;;;;;;;6.30;2.50;;;3.50;71.20;;;;;;6277966;22;20057;-82
2021/01/14 12:57:29;;;;;;;6.50;2.73;;;3.40;71.50;;;;;;6250220;22;20000;-82
2021/01/14 12:59:54;;;;;;;6.20;2.73;;;3.40;72.00;;;;;;6277947;22;20007;-82
2021/01/14 13:02:20;;;;;;;7.00;3.40;;;3.40;72.10;;;;;;6250676;22;20008;-81
2021/01/14 13:04:45;;;;;;;7.33;2.50;;;3.40;71.80;;;;;;6278184;22;20079;-81
2021/01/14 13:07:11;;;;;;;5.00;2.90;;;3.50;71.60;;;;;;6283614;22;20031;-82
2021/01/14 13:09:36;;;;;;;6.47;2.70;;;3.50;71.60;;;;;;6281970;22;20004;-83